Time;durP1;ratioP1;P1;durP2;ratioP2;P2;SDS_P1;SDS_P2;PMS_P1;PMS_P2;Temp;Humidity;BMP_temperature;BMP_pressure;BME280_temperature;BME280_humidity;BME280_pressure;Samples;Min_cycle;Max_cycle;Signal;HPM_P1;HPM_P2
2022/03/22 00:02:24;;;;;;;49.85;30.58;;;;;;;3.90;100.00;103162.53;10316368;28;20057;-73
2022/03/22 00:07:25;;;;;;;57.30;33.70;;;;;;;3.84;100.00;103159.41;10300496;28;20042;-72
2022/03/22 00:12:26;;;;;;;53.13;32.88;;;;;;;3.77;100.00;103155.56;10297770;28;20362;-72
2022/03/22 00:17:26;;;;;;;59.28;33.60;;;;;;;3.76;100.00;103148.44;10314581;28;20114;-73
2022/03/22 00:22:27;;;;;;;56.35;34.55;;;;;;;3.81;100.00;103154.25;10315283;28;20345;-73
2022/03/22 00:27:28;;;;;;;55.45;35.45;;;;;;;3.75;100.00;103162.19;10283013;28;20039;-72
2022/03/22 00:32:30;;;;;;;62.28;36.03;;;;;;;3.75;100.00;103154.88;10273936;28;20073;-72
2022/03/22 00:37:30;;;;;;;61.72;34.75;;;;;;;3.72;100.00;103157.91;10289206;28;20050;-72
2022/03/22 00:42:31;;;;;;;61.05;34.40;;;;;;;3.69;100.00;103163.66;10243273;28;20039;-72
2022/03/22 00:47:32;;;;;;;63.08;35.03;;;;;;;3.58;100.00;103155.69;10266693;28;20047;-73
2022/03/22 00:52:34;;;;;;;64.43;36.35;;;;;;;3.58;100.00;103167.44;10297170;28;20046;-73
2022/03/22 00:57:36;;;;;;;62.22;34.92;;;;;;;3.52;100.00;103153.59;10314929;28;20518;-73
2022/03/22 01:02:38;;;;;;;58.10;34.08;;;;;;;3.54;100.00;103148.84;10303104;28;20058;-72
2022/03/22 01:07:40;;;;;;;64.78;35.05;;;;;;;3.45;100.00;103145.13;10315626;28;20042;-72
2022/03/22 01:12:41;;;;;;;62.25;37.40;;;;;;;3.49;100.00;103156.59;10330336;28;20505;-72
2022/03/22 01:17:43;;;;;;;65.15;37.13;;;;;;;3.50;100.00;103158.31;10329007;28;20074;-72
2022/03/22 01:22:44;;;;;;;62.80;36.70;;;;;;;3.54;100.00;103159.75;10329145;28;20132;-72
2022/03/22 01:27:48;;;;;;;63.00;37.20;;;;;;;3.50;100.00;103136.53;10272289;28;20106;-72
2022/03/22 01:32:50;;;;;;;68.70;38.20;;;;;;;3.17;100.00;103098.84;10313277;28;20119;-72
2022/03/22 01:37:51;;;;;;;74.10;39.22;;;;;;;3.49;100.00;103140.25;10297902;28;20044;-73
2022/03/22 01:42:53;;;;;;;70.30;39.75;;;;;;;3.49;100.00;103145.69;10273318;28;20039;-73
2022/03/22 01:48:01;;;;;;;74.47;40.13;;;;;;;3.47;100.00;103147.72;10271863;28;20193;-72
2022/03/22 01:53:02;;;;;;;69.20;40.65;;;;;;;3.39;100.00;103140.28;10274222;28;20105;-72
2022/03/22 01:58:03;;;;;;;70.53;41.08;;;;;;;3.37;100.00;103142.31;10293592;28;20460;-72
2022/03/22 02:08:30;;;;;;;74.53;40.92;;;;;;;3.30;100.00;103139.34;10318968;28;20045;-72
2022/03/22 02:13:31;;;;;;;64.43;38.45;;;;;;;3.22;100.00;103128.34;10329311;28;20043;-72
2022/03/22 02:18:31;;;;;;;71.28;40.92;;;;;;;3.11;100.00;103106.78;10279890;28;20058;-72
2022/03/22 02:23:55;;;;;;;71.18;38.60;;;;;;;3.27;100.00;103134.22;10279643;28;20614;-71
2022/03/22 02:28:56;;;;;;;68.50;38.53;;;;;;;3.23;100.00;103130.06;10317957;28;20113;-71
2022/03/22 02:33:56;;;;;;;64.55;36.75;;;;;;;3.20;100.00;103130.34;10319737;28;20073;-71
2022/03/22 02:38:57;;;;;;;66.85;38.78;;;;;;;3.19;100.00;103125.94;10303172;28;20106;-71
2022/03/22 02:43:57;;;;;;;64.03;35.60;;;;;;;3.15;100.00;103119.94;10303437;28;20066;-71
2022/03/22 02:48:58;;;;;;;69.35;39.45;;;;;;;3.13;100.00;103118.38;10318147;28;20082;-72
2022/03/22 02:53:58;;;;;;;64.25;38.10;;;;;;;3.13;100.00;103129.25;10317827;28;20054;-71
2022/03/22 02:59:00;;;;;;;69.60;38.55;;;;;;;3.02;100.00;103123.00;10297203;28;20427;-71
2022/03/22 03:04:01;;;;;;;71.72;38.65;;;;;;;2.98;100.00;103121.59;10299723;28;20458;-70
2022/03/22 03:09:02;;;;;;;65.93;38.45;;;;;;;2.94;100.00;103111.16;10301961;28;20045;-71
2022/03/22 03:19:21;;;;;;;67.18;37.38;;;;;;;2.96;100.00;103134.47;10350518;28;20041;-72
2022/03/22 03:24:22;;;;;;;63.70;35.85;;;;;;;2.95;100.00;103135.47;10277428;28;20051;-73
2022/03/22 03:29:22;;;;;;;64.65;37.00;;;;;;;2.97;100.00;103130.72;10309010;28;20050;-71
2022/03/22 03:34:23;;;;;;;65.15;37.88;;;;;;;2.99;100.00;103139.59;10302605;28;20112;-72
2022/03/22 03:39:24;;;;;;;61.80;37.10;;;;;;;2.95;100.00;103138.19;10299589;28;20105;-72
2022/03/22 03:49:48;;;;;;;66.90;37.95;;;;;;;2.87;100.00;103143.50;10322081;28;20065;-72
2022/03/22 03:54:48;;;;;;;72.10;38.58;;;;;;;2.92;100.00;103160.25;10334243;28;20046;-71
2022/03/22 03:59:49;;;;;;;62.65;37.95;;;;;;;2.98;100.00;103154.22;10284783;28;20042;-71
2022/03/22 04:04:52;;;;;;;58.53;34.60;;;;;;;3.02;100.00;103163.81;10331140;28;20106;-72
2022/03/22 04:09:56;;;;;;;60.58;34.78;;;;;;;2.99;100.00;103161.38;10299007;28;20042;-71
2022/03/22 04:14:57;;;;;;;63.17;35.42;;;;;;;2.94;100.00;103196.34;10299266;28;20050;-71
2022/03/22 04:19:57;;;;;;;61.50;34.22;;;;;;;2.84;100.00;103157.44;10330547;28;20900;-72
2022/03/22 04:24:58;;;;;;;64.88;36.13;;;;;;;2.80;100.00;103156.00;10316427;28;20042;-71
2022/03/22 04:35:19;;;;;;;59.25;33.03;;;;;;;2.81;100.00;103163.13;10318816;28;20053;-72
2022/03/22 04:40:20;;;;;;;64.80;35.42;;;;;;;2.73;100.00;103146.69;10282926;28;20038;-72
2022/03/22 04:45:20;;;;;;;63.97;35.60;;;;;;;2.78;100.00;103163.44;10299004;28;20039;-72
2022/03/22 04:50:21;;;;;;;61.45;35.97;;;;;;;2.75;100.00;103163.72;10291676;28;20038;-71
2022/03/22 05:00:40;;;;;;;60.80;34.72;;;;;;;2.68;100.00;103168.03;10263480;28;20046;-71
2022/03/22 05:11:00;;;;;;;58.95;34.58;;;;;;;2.74;100.00;103178.34;10316440;28;20046;-72
2022/03/22 05:16:00;;;;;;;60.95;34.50;;;;;;;2.66;100.00;103159.19;10348236;28;20101;-71
2022/03/22 05:21:04;;;;;;;57.58;34.42;;;;;;;2.73;100.00;103171.19;10314247;28;20038;-72
2022/03/22 05:26:04;;;;;;;56.08;32.65;;;;;;;2.71;100.00;103186.78;10330470;28;20107;-72
2022/03/22 05:31:05;;;;;;;61.38;34.03;;;;;;;2.55;100.00;103169.22;10314084;28;20069;-71
2022/03/22 05:36:06;;;;;;;60.90;35.08;;;;;;;2.58;100.00;103196.13;10295806;28;20118;-72
2022/03/22 05:41:08;;;;;;;59.63;34.40;;;;;;;2.54;100.00;103193.81;10303916;28;20093;-71
2022/03/22 05:46:09;;;;;;;58.55;36.10;;;;;;;2.42;100.00;103174.09;10339452;28;20034;-72
2022/03/22 05:51:10;;;;;;;63.30;36.70;;;;;;;2.52;100.00;103196.72;10306523;28;20128;-71
2022/03/22 05:56:11;;;;;;;62.00;36.17;;;;;;;2.45;100.00;103184.66;10304213;28;20093;-71
2022/03/22 06:01:12;;;;;;;59.83;34.33;;;;;;;2.57;100.00;103202.56;10318952;28;20049;-71
2022/03/22 06:06:12;;;;;;;62.80;35.30;;;;;;;2.35;100.00;103162.91;10336260;28;20038;-74
2022/03/22 06:11:13;;;;;;;62.28;35.65;;;;;;;2.62;100.00;103197.56;10336697;28;20375;-72
2022/03/22 06:16:13;;;;;;;62.70;35.63;;;;;;;2.66;100.00;103197.25;10337349;28;20038;-71
2022/03/22 06:21:14;;;;;;;62.00;35.30;;;;;;;2.78;100.00;103209.69;10335097;28;20046;-71
2022/03/22 06:26:15;;;;;;;59.40;35.78;;;;;;;2.89;100.00;103209.53;10318087;28;20038;-72
2022/03/22 06:31:15;;;;;;;56.58;33.63;;;;;;;3.02;100.00;103215.53;10318235;28;20054;-72
2022/03/22 06:36:16;;;;;;;61.92;35.65;;;;;;;3.20;100.00;103223.78;10271820;28;20135;-71
2022/03/22 06:41:16;;;;;;;59.22;34.30;;;;;;;3.32;100.00;103227.19;10262532;28;20042;-71
2022/03/22 06:46:18;;;;;;;56.63;35.03;;;;;;;3.50;100.00;103229.13;10312357;28;20074;-71
2022/03/22 06:51:19;;;;;;;58.88;33.13;;;;;;;3.66;100.00;103233.91;10278036;28;20134;-72
2022/03/22 06:56:20;;;;;;;57.35;32.88;;;;;;;3.86;100.00;103242.88;10262881;28;20042;-72
2022/03/22 07:01:21;;;;;;;55.70;32.25;;;;;;;4.19;100.00;103235.91;10285403;28;20065;-72
2022/03/22 07:06:22;;;;;;;56.08;33.38;;;;;;;4.51;100.00;103245.47;10315972;28;20410;-71
2022/03/22 07:16:42;;;;;;;48.72;30.15;;;;;;;5.07;100.00;103246.09;10318726;28;20049;-72
2022/03/22 07:21:44;;;;;;;52.75;31.10;;;;;;;5.29;100.00;103239.22;10316307;28;20266;-72
2022/03/22 07:26:45;;;;;;;51.40;28.20;;;;;;;5.47;100.00;103238.13;10276145;28;20047;-72
2022/03/22 07:31:46;;;;;;;42.97;26.77;;;;;;;5.70;100.00;103245.78;10297748;28;20038;-71
2022/03/22 07:36:52;;;;;;;47.85;27.92;;;;;;;5.90;100.00;103259.19;10316971;28;20554;-71
2022/03/22 07:41:53;;;;;;;48.00;27.83;;;;;;;6.14;100.00;103261.19;10319397;28;20038;-72
2022/03/22 07:46:54;;;;;;;46.05;26.80;;;;;;;6.35;100.00;103258.00;10285246;28;20521;-74
2022/03/22 07:57:14;;;;;;;47.15;27.25;;;;;;;6.81;100.00;103248.28;10320168;28;20576;-73
2022/03/22 08:02:14;;;;;;;47.83;28.38;;;;;;;7.06;100.00;103257.34;10298634;28;20143;-72
2022/03/22 08:07:15;;;;;;;56.05;26.75;;;;;;;7.11;100.00;103236.81;10265658;28;20043;-72
2022/03/22 08:12:15;;;;;;;46.13;27.55;;;;;;;7.46;100.00;103257.44;10309197;28;20049;-72
2022/03/22 08:17:16;;;;;;;42.17;24.00;;;;;;;7.74;100.00;103260.63;10295906;28;20101;-72
2022/03/22 08:22:16;;;;;;;43.13;23.77;;;;;;;8.05;100.00;103251.59;10294692;28;20035;-72
2022/03/22 08:27:17;;;;;;;38.40;23.95;;;;;;;8.27;100.00;103260.91;10277760;28;20058;-71
2022/03/22 08:32:17;;;;;;;45.03;24.02;;;;;;;8.52;100.00;103264.38;10278219;28;20443;-72
2022/03/22 08:37:18;;;;;;;36.35;23.17;;;;;;;8.76;100.00;103257.84;10261585;28;20050;-72
2022/03/22 08:42:18;;;;;;;36.95;22.60;;;;;;;8.99;100.00;103265.19;10303791;28;20038;-72
2022/03/22 08:47:19;;;;;;;42.33;23.63;;;;;;;9.25;100.00;103253.81;10297108;28;20053;-72
2022/03/22 08:52:19;;;;;;;34.88;22.00;;;;;;;9.56;100.00;103248.13;10297046;28;20570;-72
2022/03/22 08:57:20;;;;;;;40.30;23.20;;;;;;;9.89;100.00;103256.84;10313014;28;20034;-72
2022/03/22 09:02:20;;;;;;;32.83;22.40;;;;;;;10.15;100.00;103252.75;10297069;28;20038;-72
2022/03/22 09:07:21;;;;;;;38.42;23.08;;;;;;;10.25;100.00;103212.00;10314457;28;20062;-72
2022/03/22 09:12:21;;;;;;;35.55;22.70;;;;;;;10.78;100.00;103241.16;10312893;28;20053;-72
2022/03/22 09:17:22;;;;;;;38.80;23.20;;;;;;;11.18;100.00;103235.94;10335191;28;20038;-72
2022/03/22 09:22:22;;;;;;;36.08;22.65;;;;;;;11.65;100.00;103250.91;10304798;28;20045;-72
2022/03/22 09:27:24;;;;;;;34.97;20.92;;;;;;;12.00;100.00;103242.63;10336365;28;20053;-72
2022/03/22 09:32:25;;;;;;;35.65;21.38;;;;;;;12.32;100.00;103230.84;10305720;28;20059;-72
2022/03/22 09:37:27;;;;;;;32.50;20.05;;;;;;;12.70;100.00;103232.19;10300208;28;20483;-72
2022/03/22 09:42:27;;;;;;;37.72;20.10;;;;;;;12.94;98.37;103225.19;10302514;28;20046;-72
2022/03/22 09:47:28;;;;;;;33.58;20.20;;;;;;;13.22;95.18;103213.03;10316326;28;20066;-72
2022/03/22 09:52:29;;;;;;;32.10;18.58;;;;;;;13.52;90.48;103196.84;10299866;28;20053;-71
2022/03/22 09:57:29;;;;;;;33.47;19.02;;;;;;;13.67;87.60;103185.50;10284653;28;20046;-72
2022/03/22 10:02:31;;;;;;;30.95;19.50;;;;;;;14.10;86.70;103205.09;10300857;28;20042;-71
2022/03/22 10:07:31;;;;;;;32.78;19.70;;;;;;;14.29;82.43;103191.34;10332086;28;20147;-72
2022/03/22 10:12:36;;;;;;;30.08;19.23;;;;;;;14.62;82.15;103185.63;10312001;28;20159;-71
2022/03/22 10:17:37;;;;;;;32.97;19.85;;;;;;;14.90;79.64;103203.72;10306369;28;20057;-72
2022/03/22 10:22:37;;;;;;;30.25;19.77;;;;;;;15.14;81.24;103202.84;10333566;28;20097;-71
2022/03/22 10:27:38;;;;;;;30.08;18.85;;;;;;;15.30;77.58;103182.00;10315949;28;20066;-71
2022/03/22 10:32:40;;;;;;;35.38;20.08;;;;;;;15.58;77.12;103182.53;10314024;28;20372;-71
2022/03/22 10:37:42;;;;;;;30.35;19.70;;;;;;;15.79;75.79;103173.75;10315709;28;20045;-70
2022/03/22 10:42:42;;;;;;;33.08;20.02;;;;;;;16.28;78.11;103195.97;10331050;28;20022;-72
2022/03/22 10:47:43;;;;;;;29.90;19.15;;;;;;;16.70;77.75;103194.03;10319385;28;20046;-71
2022/03/22 10:52:54;;;;;;;29.73;20.30;;;;;;;16.78;71.27;103180.84;10316396;28;20073;-71
2022/03/22 10:58:00;;;;;;;33.85;20.08;;;;;;;16.91;73.03;103183.44;10264484;28;20049;-69
2022/03/22 11:03:00;;;;;;;30.20;19.37;;;;;;;17.36;73.61;103188.38;10293231;28;20035;-71
2022/03/22 11:08:01;;;;;;;35.00;19.90;;;;;;;17.70;69.84;103183.00;10294619;28;20038;-71
2022/03/22 11:13:01;;;;;;;36.65;20.35;;;;;;;17.80;71.06;103172.06;10277295;28;20097;-71
2022/03/22 11:18:02;;;;;;;28.80;19.75;;;;;;;18.14;70.03;103167.44;10277565;28;20047;-72
2022/03/22 11:23:03;;;;;;;34.28;21.83;;;;;;;18.46;67.72;103157.69;10266551;28;20065;-71
2022/03/22 11:28:06;;;;;;;27.45;18.42;;;;;;;18.40;65.71;103155.91;10294662;28;20073;-71
2022/03/22 11:38:39;;;;;;;32.67;21.80;;;;;;;18.94;64.67;103136.78;10333208;28;20098;-73
2022/03/22 11:43:42;;;;;;;30.48;20.20;;;;;;;19.33;64.14;103146.00;10320449;28;20035;-71
2022/03/22 11:48:43;;;;;;;37.72;21.65;;;;;;;19.44;63.54;103140.53;10291351;28;20509;-71
2022/03/22 11:53:44;;;;;;;34.50;21.08;;;;;;;19.45;61.19;103120.72;10279644;28;20061;-71
2022/03/22 11:58:51;;;;;;;30.23;19.45;;;;;;;19.88;59.80;103119.00;10312872;28;20150;-71
2022/03/22 12:04:05;;;;;;;33.83;19.13;;;;;;;20.14;59.64;103122.91;10512175;28;20395;-70
2022/03/22 12:09:06;;;;;;;36.63;19.70;;;;;;;20.80;57.49;103112.59;10404282;28;20498;-68
2022/03/22 12:14:07;;;;;;;34.25;19.45;;;;;;;21.53;54.85;103088.31;10441285;28;20054;-69
2022/03/22 12:19:08;;;;;;;30.85;21.63;;;;;;;21.93;53.15;103038.22;10432340;28;20056;-68
2022/03/22 12:24:08;;;;;;;33.97;21.45;;;;;;;23.32;50.83;103072.59;10443651;28;20025;-69
2022/03/22 12:29:09;;;;;;;32.17;22.25;;;;;;;23.71;49.47;103067.03;10443444;28;20049;-69
2022/03/22 12:34:09;;;;;;;33.22;21.52;;;;;;;24.44;47.02;103075.78;10427635;28;20486;-70
2022/03/22 12:39:10;;;;;;;31.17;21.73;;;;;;;24.96;46.18;103065.69;10425693;28;20513;-70
2022/03/22 12:44:10;;;;;;;32.00;22.95;;;;;;;25.45;45.00;103055.25;10425252;28;20433;-70
2022/03/22 12:49:11;;;;;;;29.10;22.70;;;;;;;25.43;44.66;103058.34;10442990;28;20095;-69
2022/03/22 12:54:14;;;;;;;35.10;22.60;;;;;;;25.51;43.03;103037.94;10450283;28;20025;-68
2022/03/22 12:59:21;;;;;;;33.28;22.00;;;;;;;25.42;43.02;103013.53;10468460;28;20044;-70
2022/03/22 13:04:22;;;;;;;32.33;21.52;;;;;;;25.62;40.92;103032.13;10462973;28;20064;-69
2022/03/22 13:15:04;;;;;;;33.47;22.02;;;;;;;26.23;41.62;103022.72;10414538;28;20056;-69
2022/03/22 13:20:11;;;;;;;31.48;21.90;;;;;;;25.83;41.17;103025.03;10384335;28;20037;-69
2022/03/22 13:25:12;;;;;;;33.13;21.88;;;;;;;25.76;41.00;102987.91;10398766;28;20037;-69
2022/03/22 13:30:17;;;;;;;29.38;20.45;;;;;;;26.30;41.36;103025.94;10437670;28;20488;-68
2022/03/22 13:35:19;;;;;;;29.65;21.05;;;;;;;26.76;41.62;103016.63;10438457;28;20129;-68
2022/03/22 13:40:20;;;;;;;29.83;20.48;;;;;;;26.99;38.55;102996.94;10436854;28;20041;-68
2022/03/22 13:45:21;;;;;;;31.17;20.08;;;;;;;26.72;37.70;102949.75;10397332;28;20030;-71
2022/03/22 13:50:24;;;;;;;27.30;18.92;;;;;;;27.00;39.34;102998.63;10393443;28;20042;-69
2022/03/22 13:55:25;;;;;;;27.33;19.02;;;;;;;26.46;36.90;102986.97;10396628;28;20034;-69
2022/03/22 14:00:26;;;;;;;27.88;19.60;;;;;;;26.52;39.40;102982.03;10396314;28;20088;-69
2022/03/22 14:05:27;;;;;;;28.73;18.90;;;;;;;26.73;39.22;102989.00;10395528;28;20251;-69
2022/03/22 14:10:28;;;;;;;24.38;19.38;;;;;;;27.11;38.88;102988.75;10407428;28;20378;-69
2022/03/22 14:15:28;;;;;;;28.98;19.50;;;;;;;27.36;37.68;102990.19;10415105;28;20053;-69
2022/03/22 14:20:29;;;;;;;28.10;19.30;;;;;;;27.33;38.23;102985.19;10465776;28;20041;-69
2022/03/22 14:25:32;;;;;;;26.77;18.77;;;;;;;27.25;35.81;102959.66;10428023;28;20022;-69
2022/03/22 14:30:36;;;;;;;28.33;18.77;;;;;;;27.14;38.69;102993.78;10394844;28;20037;-69
2022/03/22 14:35:56;;;;;;;29.42;19.70;;;;;;;27.06;37.85;102985.19;10378291;28;20112;-69
2022/03/22 14:41:00;;;;;;;28.55;20.95;;;;;;;26.82;35.27;102960.00;10426548;28;20041;-69
2022/03/22 14:46:01;;;;;;;28.90;20.02;;;;;;;26.73;37.71;102974.88;10393067;28;20041;-68
2022/03/22 14:51:01;;;;;;;22.98;17.35;;;;;;;26.94;37.33;102972.44;10410262;28;20048;-69
2022/03/22 15:01:23;;;;;;;21.42;16.63;;;;;;;26.93;36.89;102958.63;10392136;28;20092;-69
2022/03/22 15:06:23;;;;;;;23.42;15.80;;;;;;;26.97;37.46;102977.47;10422752;28;20065;-70
2022/03/22 15:11:24;;;;;;;19.52;14.35;;;;;;;26.64;35.73;102945.66;10396420;28;20064;-69
2022/03/22 15:16:24;;;;;;;21.63;15.25;;;;;;;26.56;37.85;102967.00;10408818;28;20046;-69
2022/03/22 15:21:26;;;;;;;22.50;14.48;;;;;;;26.23;36.65;102945.63;10373349;28;20026;-69
2022/03/22 15:26:26;;;;;;;25.20;15.68;;;;;;;26.15;37.66;102966.97;10405945;28;20038;-70
2022/03/22 15:31:27;;;;;;;23.15;14.65;;;;;;;26.14;35.77;102942.69;10389734;28;20034;-69
2022/03/22 15:36:27;;;;;;;22.30;15.18;;;;;;;26.17;37.19;102965.50;10393469;28;20048;-70
2022/03/22 15:41:28;;;;;;;20.10;14.82;;;;;;;26.20;36.96;102952.72;10448244;28;20029;-69
2022/03/22 15:46:28;;;;;;;28.80;15.25;;;;;;;26.24;36.23;102936.00;10444502;28;20034;-69
2022/03/22 15:51:28;;;;;;;22.80;16.00;;;;;;;26.24;36.73;102934.03;10423175;28;20026;-70
2022/03/22 15:56:29;;;;;;;27.33;17.60;;;;;;;25.95;35.65;102923.81;10414993;28;20022;-70
2022/03/22 16:01:29;;;;;;;23.58;16.42;;;;;;;25.53;37.33;102928.47;10413645;28;20045;-69
2022/03/22 16:06:32;;;;;;;25.75;18.85;;;;;;;25.31;37.87;102929.09;10417255;28;20038;-70
2022/03/22 16:11:32;;;;;;;25.35;17.23;;;;;;;25.24;37.92;102931.47;10386918;28;20462;-69
2022/03/22 16:16:32;;;;;;;27.75;19.50;;;;;;;24.28;39.29;102949.22;10387710;28;20034;-70
2022/03/22 16:21:33;;;;;;;30.35;21.63;;;;;;;22.81;42.80;102954.78;10387747;28;20062;-69
2022/03/22 16:26:35;;;;;;;35.05;24.27;;;;;;;21.40;46.49;102985.16;10389382;28;20030;-68
2022/03/22 16:31:35;;;;;;;32.95;22.17;;;;;;;20.34;50.36;102988.00;10388338;28;20082;-69
2022/03/22 16:36:49;;;;;;;35.63;23.27;;;;;;;19.51;53.84;103001.47;10387349;28;20029;-69
2022/03/22 16:41:58;;;;;;;39.38;24.45;;;;;;;18.81;55.31;103000.38;10443459;28;20025;-69
2022/03/22 16:47:00;;;;;;;37.30;24.60;;;;;;;18.37;57.15;103003.91;10432150;28;20022;-70
2022/03/22 16:52:00;;;;;;;38.40;23.27;;;;;;;18.07;60.43;103015.41;10436424;28;20192;-70
2022/03/22 16:57:01;;;;;;;36.58;24.60;;;;;;;17.73;62.37;103012.53;10409302;28;20025;-68
2022/03/22 17:02:01;;;;;;;33.47;22.25;;;;;;;17.41;65.75;103027.00;10397953;28;20042;-68
2022/03/22 17:07:03;;;;;;;39.42;23.65;;;;;;;17.01;69.09;103019.50;10428805;28;20049;-68
2022/03/22 17:12:04;;;;;;;39.50;23.10;;;;;;;16.68;70.40;103029.31;10432273;28;20033;-70
2022/03/22 17:17:07;;;;;;;36.75;21.75;;;;;;;16.34;72.13;103039.34;10434175;28;20093;-70
2022/03/22 17:22:09;;;;;;;39.15;23.33;;;;;;;15.95;76.33;103033.34;10400721;28;20128;-69
2022/03/22 17:27:09;;;;;;;37.42;23.60;;;;;;;15.69;80.71;103052.09;10433870;28;20089;-70
2022/03/22 17:32:11;;;;;;;40.50;23.92;;;;;;;15.31;85.33;103052.41;10432580;28;20033;-70
2022/03/22 17:37:11;;;;;;;41.70;25.10;;;;;;;14.93;88.61;103047.97;10434496;28;20030;-70
2022/03/22 17:42:13;;;;;;;41.53;24.75;;;;;;;14.49;90.80;103049.84;10416244;28;20072;-69
2022/03/22 17:47:13;;;;;;;37.80;23.42;;;;;;;14.17;96.17;103055.47;10391850;28;20037;-69
2022/03/22 17:52:14;;;;;;;39.72;24.65;;;;;;;13.83;98.77;103054.88;10391636;28;20046;-69
2022/03/22 17:57:14;;;;;;;45.13;27.17;;;;;;;13.51;100.00;103068.66;10431308;28;20029;-69
2022/03/22 18:02:16;;;;;;;42.53;25.70;;;;;;;13.20;100.00;103055.56;10430074;28;20057;-69
2022/03/22 18:07:17;;;;;;;41.20;24.77;;;;;;;12.99;100.00;103070.53;10431659;28;20048;-69
2022/03/22 18:12:17;;;;;;;43.72;25.75;;;;;;;12.65;100.00;103055.97;10429140;28;20040;-69
2022/03/22 18:17:18;;;;;;;42.53;25.05;;;;;;;12.54;100.00;103077.84;10432392;28;20033;-69
2022/03/22 18:22:20;;;;;;;42.85;25.50;;;;;;;12.23;100.00;103066.38;10430922;28;20025;-69
2022/03/22 18:27:20;;;;;;;39.72;25.77;;;;;;;12.04;100.00;103061.69;10430760;28;20539;-69
2022/03/22 18:32:21;;;;;;;43.10;25.30;;;;;;;11.88;100.00;103085.88;10430323;28;20041;-69
2022/03/22 18:37:21;;;;;;;42.55;24.40;;;;;;;11.73;100.00;103076.06;10431858;28;20021;-69
2022/03/22 18:42:24;;;;;;;47.38;25.42;;;;;;;11.59;100.00;103070.47;10422612;28;20325;-69
2022/03/22 18:47:25;;;;;;;48.08;29.65;;;;;;;11.48;100.00;103080.22;10393650;28;20026;-68
2022/03/22 18:52:25;;;;;;;43.80;27.95;;;;;;;11.36;100.00;103076.34;10388682;28;20030;-69
2022/03/22 18:57:26;;;;;;;44.92;26.15;;;;;;;11.29;100.00;103086.50;10388377;28;20533;-69
2022/03/22 19:02:26;;;;;;;46.60;27.08;;;;;;;11.16;100.00;103092.78;10371937;28;20662;-69
2022/03/22 19:07:27;;;;;;;49.63;26.83;;;;;;;11.06;100.00;103098.69;10389532;28;20067;-69
2022/03/22 19:12:27;;;;;;;42.85;25.30;;;;;;;10.92;100.00;103091.38;10387871;28;20057;-69
2022/03/22 19:22:51;;;;;;;49.85;28.02;;;;;;;10.72;100.00;103106.94;10388186;28;20044;-69
2022/03/22 19:27:52;;;;;;;50.20;27.48;;;;;;;10.55;100.00;103089.84;10386730;28;20075;-69
2022/03/22 19:33:08;;;;;;;50.30;28.35;;;;;;;10.50;100.00;103107.00;10413278;28;20033;-69
2022/03/22 19:38:12;;;;;;;46.55;27.73;;;;;;;10.29;100.00;103103.22;10412760;28;20116;-69
2022/03/22 19:43:14;;;;;;;48.92;28.65;;;;;;;9.90;100.00;103052.22;10428802;28;20052;-69
2022/03/22 19:48:16;;;;;;;44.75;27.98;;;;;;;9.97;100.00;103087.19;10428434;28;20037;-69
2022/03/22 19:53:16;;;;;;;54.15;29.02;;;;;;;9.07;100.00;102972.00;10426969;28;20112;-69
2022/03/22 19:58:20;;;;;;;52.90;29.85;;;;;;;9.78;100.00;103108.78;10427613;28;20025;-69
2022/03/22 20:03:21;;;;;;;52.95;29.25;;;;;;;9.65;100.00;103114.13;10425665;28;20092;-69
2022/03/22 20:08:21;;;;;;;48.90;28.15;;;;;;;9.56;100.00;103124.38;10424361;28;20059;-68
2022/03/22 20:13:22;;;;;;;45.53;27.40;;;;;;;9.35;100.00;103108.69;10427200;28;20108;-68
2022/03/22 20:18:23;;;;;;;51.80;29.77;;;;;;;9.22;100.00;103111.25;10427187;28;20044;-69
2022/03/22 20:23:24;;;;;;;64.55;34.63;;;;;;;9.14;100.00;103125.97;10432541;28;20057;-69
2022/03/22 20:28:24;;;;;;;57.85;32.90;;;;;;;8.67;100.00;103073.06;10436352;28;20029;-69
2022/03/22 20:33:25;;;;;;;55.20;33.15;;;;;;;8.93;100.00;103123.97;10434961;28;20033;-69
2022/03/22 20:38:26;;;;;;;61.88;33.53;;;;;;;8.84;100.00;103128.66;10404080;28;20037;-69
2022/03/22 20:43:27;;;;;;;57.08;32.60;;;;;;;8.74;100.00;103132.72;10394088;28;20418;-69
2022/03/22 20:48:28;;;;;;;57.75;31.85;;;;;;;8.65;100.00;103138.31;10393313;28;20034;-69
2022/03/22 20:53:29;;;;;;;58.50;32.90;;;;;;;8.58;100.00;103134.59;10395081;28;20041;-69
2022/03/22 21:03:49;;;;;;;58.13;33.58;;;;;;;8.26;100.00;103122.81;10393290;28;20084;-69
2022/03/22 21:08:49;;;;;;;62.40;34.45;;;;;;;8.27;100.00;103146.50;10394708;28;20038;-68
2022/03/22 21:13:49;;;;;;;63.25;35.58;;;;;;;8.20;100.00;103139.16;10392334;28;20090;-68
2022/03/22 21:18:52;;;;;;;59.80;34.42;;;;;;;8.04;100.00;103134.63;10393219;28;20049;-69
2022/03/22 21:23:52;;;;;;;58.42;33.88;;;;;;;8.01;100.00;103146.00;10392009;28;20034;-68
2022/03/22 21:28:53;;;;;;;60.53;34.10;;;;;;;7.94;100.00;103150.47;10391304;28;20065;-69
2022/03/22 21:33:53;;;;;;;67.30;37.13;;;;;;;7.80;100.00;103142.00;10375568;28;20044;-68
2022/03/22 21:38:54;;;;;;;71.75;36.40;;;;;;;7.77;100.00;103152.47;10386478;28;20026;-69
2022/03/22 21:43:55;;;;;;;63.00;35.08;;;;;;;7.38;100.00;103096.66;10424621;28;20057;-69
2022/03/22 21:48:55;;;;;;;65.22;35.45;;;;;;;7.66;100.00;103148.25;10391196;28;20133;-69
2022/03/22 21:53:57;;;;;;;66.97;37.03;;;;;;;7.55;100.00;103145.91;10390877;28;20037;-69
2022/03/22 21:58:58;;;;;;;65.18;35.85;;;;;;;7.53;100.00;103148.00;10407337;28;20030;-69
2022/03/22 22:03:59;;;;;;;61.28;35.95;;;;;;;7.50;100.00;103145.59;10391572;28;20069;-69
2022/03/22 22:08:59;;;;;;;61.75;35.10;;;;;;;7.39;100.00;103139.47;10391965;28;20034;-69
2022/03/22 22:14:00;;;;;;;67.85;35.55;;;;;;;7.37;100.00;103149.75;10423620;28;20037;-69
2022/03/22 22:19:02;;;;;;;67.95;36.75;;;;;;;7.19;100.00;103118.97;10391568;28;20156;-69
2022/03/22 22:24:02;;;;;;;60.47;35.10;;;;;;;7.27;100.00;103133.50;10389792;28;20050;-68
2022/03/22 22:29:03;;;;;;;60.65;32.75;;;;;;;7.19;100.00;103125.34;10390125;28;20018;-69
2022/03/22 22:34:03;;;;;;;63.35;36.05;;;;;;;7.16;100.00;103133.91;10392153;28;20053;-68
2022/03/22 22:39:04;;;;;;;65.20;36.25;;;;;;;7.02;100.00;103129.16;10405764;28;20034;-68
2022/03/22 22:44:05;;;;;;;67.18;35.78;;;;;;;6.89;100.00;103118.75;10372023;28;20033;-69
2022/03/22 22:49:05;;;;;;;67.13;35.13;;;;;;;6.96;100.00;103141.66;10388098;28;20068;-69
2022/03/22 22:54:06;;;;;;;67.85;34.50;;;;;;;6.59;100.00;103084.75;10390028;28;20056;-68
2022/03/22 22:59:06;;;;;;;62.65;35.13;;;;;;;6.77;100.00;103122.88;10389362;28;20034;-68
2022/03/22 23:04:09;;;;;;;65.07;34.22;;;;;;;6.80;100.00;103128.00;10409378;28;20096;-68
2022/03/22 23:14:30;;;;;;;63.88;32.63;;;;;;;6.64;100.00;103117.94;10429233;28;20029;-69
2022/03/22 23:19:31;;;;;;;66.47;35.47;;;;;;;6.60;100.00;103124.78;10428963;28;20087;-69
2022/03/22 23:24:31;;;;;;;64.80;35.63;;;;;;;6.42;100.00;103106.66;10411199;28;20085;-68
2022/03/22 23:29:32;;;;;;;67.03;35.45;;;;;;;6.42;100.00;103117.59;10429956;28;20038;-69
2022/03/22 23:34:34;;;;;;;61.40;33.45;;;;;;;6.28;100.00;103106.50;10412359;28;20081;-69
2022/03/22 23:39:35;;;;;;;61.15;32.70;;;;;;;6.26;100.00;103120.34;10411906;28;20092;-69
2022/03/22 23:44:35;;;;;;;61.75;33.47;;;;;;;6.21;100.00;103120.84;10406500;28;20149;-68
2022/03/22 23:49:36;;;;;;;65.90;35.25;;;;;;;6.05;100.00;103109.91;10388225;28;20026;-69